sensor_id;sensor_type;location;lat;lon;timestamp;temperature;humidity
38995;DHT22;24769;18.712;99.000;2023-01-24T10:50:44;27.10;28.60
38995;DHT22;24769;18.712;99.000;2023-01-24T10:53:33;26.50;25.60
38995;DHT22;24769;18.712;99.000;2023-01-24T10:56:03;25.90;26.10
38995;DHT22;24769;18.712;99.000;2023-01-24T10:58:43;25.50;27.60
38995;DHT22;24769;18.712;99.000;2023-01-24T11:01:22;25.20;30.00
38995;DHT22;24769;18.712;99.000;2023-01-24T11:03:51;25.00;27.90
38995;DHT22;24769;18.712;99.000;2023-01-24T11:06:33;25.10;27.50
38995;DHT22;24769;18.712;99.000;2023-01-24T11:09:18;25.00;29.00
38995;DHT22;24769;18.712;99.000;2023-01-24T11:11:54;24.60;31.20
38995;DHT22;24769;18.712;99.000;2023-01-24T11:14:25;24.40;31.80
38995;DHT22;24769;18.712;99.000;2023-01-24T11:16:55;24.20;34.10
38995;DHT22;24769;18.712;99.000;2023-01-24T11:19:38;24.00;33.70
38995;DHT22;24769;18.712;99.000;2023-01-24T11:22:26;23.90;33.60
38995;DHT22;24769;18.712;99.000;2023-01-24T11:25:01;23.70;34.30
38995;DHT22;24769;18.712;99.000;2023-01-24T11:27:28;23.60;35.10
38995;DHT22;24769;18.712;99.000;2023-01-24T11:33:02;23.40;35.90
38995;DHT22;24769;18.712;99.000;2023-01-24T11:35:37;23.30;37.00
38995;DHT22;24769;18.712;99.000;2023-01-24T11:40:44;23.20;38.20
38995;DHT22;24769;18.712;99.000;2023-01-24T11:51:56;22.70;42.00
38995;DHT22;24769;18.712;99.000;2023-01-24T11:57:19;22.50;44.10
38995;DHT22;24769;18.712;99.000;2023-01-24T12:10:44;22.20;43.30
38995;DHT22;24769;18.712;99.000;2023-01-24T12:13:35;22.10;46.60
38995;DHT22;24769;18.712;99.000;2023-01-24T12:21:56;22.20;50.10
38995;DHT22;24769;18.712;99.000;2023-01-24T12:24:35;22.10;50.00
38995;DHT22;24769;18.712;99.000;2023-01-24T12:27:06;22.30;48.00
38995;DHT22;24769;18.712;99.000;2023-01-24T12:29:41;22.30;49.00
38995;DHT22;24769;18.712;99.000;2023-01-24T12:32:24;22.30;49.20
38995;DHT22;24769;18.712;99.000;2023-01-24T12:40:22;22.40;47.30
38995;DHT22;24769;18.712;99.000;2023-01-24T12:51:22;22.30;48.80
38995;DHT22;24769;18.712;99.000;2023-01-24T12:59:29;22.10;50.40
38995;DHT22;24769;18.712;99.000;2023-01-24T13:07:42;21.90;51.40
38995;DHT22;24769;18.712;99.000;2023-01-24T13:13:30;21.70;52.20
38995;DHT22;24769;18.712;99.000;2023-01-24T13:16:21;21.70;51.20
38995;DHT22;24769;18.712;99.000;2023-01-24T13:19:03;21.60;52.90
38995;DHT22;24769;18.712;99.000;2023-01-24T13:21:40;21.60;52.30
38995;DHT22;24769;18.712;99.000;2023-01-24T13:32:21;21.30;56.30
38995;DHT22;24769;18.712;99.000;2023-01-24T13:34:51;21.20;57.40
38995;DHT22;24769;18.712;99.000;2023-01-24T13:42:42;21.00;63.10
38995;DHT22;24769;18.712;99.000;2023-01-24T13:51:33;20.60;68.90
38995;DHT22;24769;18.712;99.000;2023-01-24T13:54:05;20.40;71.40
38995;DHT22;24769;18.712;99.000;2023-01-24T13:56:34;20.40;73.40
38995;DHT22;24769;18.712;99.000;2023-01-24T13:59:18;20.30;75.20
38995;DHT22;24769;18.712;99.000;2023-01-24T14:01:45;20.40;75.20
38995;DHT22;24769;18.712;99.000;2023-01-24T14:04:12;20.30;74.70
38995;DHT22;24769;18.712;99.000;2023-01-24T14:06:43;20.30;74.80
38995;DHT22;24769;18.712;99.000;2023-01-24T14:09:21;20.40;75.00
38995;DHT22;24769;18.712;99.000;2023-01-24T14:11:55;20.20;76.80
38995;DHT22;24769;18.712;99.000;2023-01-24T14:14:33;20.10;80.10
38995;DHT22;24769;18.712;99.000;2023-01-24T14:17:03;20.10;82.50
38995;DHT22;24769;18.712;99.000;2023-01-24T14:19:35;20.10;82.60
38995;DHT22;24769;18.712;99.000;2023-01-24T14:27:16;19.90;85.70
38995;DHT22;24769;18.712;99.000;2023-01-24T14:29:47;20.00;85.20
38995;DHT22;24769;18.712;99.000;2023-01-24T14:38:15;19.90;84.80
38995;DHT22;24769;18.712;99.000;2023-01-24T14:40:52;20.00;83.50
38995;DHT22;24769;18.712;99.000;2023-01-24T14:43:23;19.90;83.90
38995;DHT22;24769;18.712;99.000;2023-01-24T14:45:50;19.80;85.50
38995;DHT22;24769;18.712;99.000;2023-01-24T14:48:23;19.80;84.40
38995;DHT22;24769;18.712;99.000;2023-01-24T14:51:05;19.80;84.00
38995;DHT22;24769;18.712;99.000;2023-01-24T14:53:33;19.70;86.10
38995;DHT22;24769;18.712;99.000;2023-01-24T14:56:09;19.80;85.20
38995;DHT22;24769;18.712;99.000;2023-01-24T14:58:38;19.70;87.00
38995;DHT22;24769;18.712;99.000;2023-01-24T15:01:38;19.70;89.30
38995;DHT22;24769;18.712;99.000;2023-01-24T15:04:17;19.70;90.40
38995;DHT22;24769;18.712;99.000;2023-01-24T15:06:45;19.50;93.80
38995;DHT22;24769;18.712;99.000;2023-01-24T15:09:19;19.30;98.00
38995;DHT22;24769;18.712;99.000;2023-01-24T15:11:47;19.30;96.10
38995;DHT22;24769;18.712;99.000;2023-01-24T15:14:18;19.50;94.50
38995;DHT22;24769;18.712;99.000;2023-01-24T15:17:03;19.40;96.00
38995;DHT22;24769;18.712;99.000;2023-01-24T15:19:32;19.30;97.80
38995;DHT22;24769;18.712;99.000;2023-01-24T15:21:58;19.20;96.50
38995;DHT22;24769;18.712;99.000;2023-01-24T15:24:26;19.20;99.00
38995;DHT22;24769;18.712;99.000;2023-01-24T15:26:54;19.00;99.90
38995;DHT22;24769;18.712;99.000;2023-01-24T15:37:44;19.10;99.90
38995;DHT22;24769;18.712;99.000;2023-01-24T15:40:18;19.50;97.60
38995;DHT22;24769;18.712;99.000;2023-01-24T15:42:47;19.40;98.80
38995;DHT22;24769;18.712;99.000;2023-01-24T15:45:36;19.20;99.90
38995;DHT22;24769;18.712;99.000;2023-01-24T15:48:20;19.10;99.90
38995;DHT22;24769;18.712;99.000;2023-01-24T15:50:55;18.90;99.90
38995;DHT22;24769;18.712;99.000;2023-01-24T15:53:42;18.90;99.90
38995;DHT22;24769;18.712;99.000;2023-01-24T15:56:29;18.70;99.90
38995;DHT22;24769;18.712;99.000;2023-01-24T15:58:56;18.60;99.90
38995;DHT22;24769;18.712;99.000;2023-01-24T16:01:27;18.60;99.90
38995;DHT22;24769;18.712;99.000;2023-01-24T16:03:58;18.70;99.90
38995;DHT22;24769;18.712;99.000;2023-01-24T16:06:30;18.90;99.90
38995;DHT22;24769;18.712;99.000;2023-01-24T16:08:57;18.90;99.90
38995;DHT22;24769;18.712;99.000;2023-01-24T16:11:23;19.00;99.90
38995;DHT22;24769;18.712;99.000;2023-01-24T16:13:50;19.10;99.90
38995;DHT22;24769;18.712;99.000;2023-01-24T16:16:22;19.00;99.90
38995;DHT22;24769;18.712;99.000;2023-01-24T16:18:49;18.80;99.90
38995;DHT22;24769;18.712;99.000;2023-01-24T16:21:15;18.80;99.90
38995;DHT22;24769;18.712;99.000;2023-01-24T16:23:42;19.00;99.90
38995;DHT22;24769;18.712;99.000;2023-01-24T16:26:23;19.10;99.90
38995;DHT22;24769;18.712;99.000;2023-01-24T16:28:50;18.80;99.90
38995;DHT22;24769;18.712;99.000;2023-01-24T16:31:17;18.60;99.90
38995;DHT22;24769;18.712;99.000;2023-01-24T16:33:44;18.50;99.90
38995;DHT22;24769;18.712;99.000;2023-01-24T16:36:13;18.70;99.90
38995;DHT22;24769;18.712;99.000;2023-01-24T16:38:41;18.80;99.90
38995;DHT22;24769;18.712;99.000;2023-01-24T16:41:10;18.90;99.90
38995;DHT22;24769;18.712;99.000;2023-01-24T16:43:36;18.80;99.90
38995;DHT22;24769;18.712;99.000;2023-01-24T16:46:06;18.70;99.90
38995;DHT22;24769;18.712;99.000;2023-01-24T16:48:38;18.70;99.90
38995;DHT22;24769;18.712;99.000;2023-01-24T16:51:09;18.90;99.90
38995;DHT22;24769;18.712;99.000;2023-01-24T16:53:36;18.70;99.90
38995;DHT22;24769;18.712;99.000;2023-01-24T16:56:03;18.60;99.90
38995;DHT22;24769;18.712;99.000;2023-01-24T16:58:29;18.60;99.90
38995;DHT22;24769;18.712;99.000;2023-01-24T17:00:56;18.70;99.90
38995;DHT22;24769;18.712;99.000;2023-01-24T17:03:23;18.70;99.90
38995;DHT22;24769;18.712;99.000;2023-01-24T17:05:49;18.60;99.90
38995;DHT22;24769;18.712;99.000;2023-01-24T17:08:16;18.50;99.90
38995;DHT22;24769;18.712;99.000;2023-01-24T17:10:43;18.40;99.90
38995;DHT22;24769;18.712;99.000;2023-01-24T17:13:09;18.20;99.90
38995;DHT22;24769;18.712;99.000;2023-01-24T17:15:37;18.20;99.90
38995;DHT22;24769;18.712;99.000;2023-01-24T17:18:05;18.20;99.90
38995;DHT22;24769;18.712;99.000;2023-01-24T17:20:33;18.00;99.90
38995;DHT22;24769;18.712;99.000;2023-01-24T17:23:00;18.00;99.90
38995;DHT22;24769;18.712;99.000;2023-01-24T17:25:31;18.00;99.90
38995;DHT22;24769;18.712;99.000;2023-01-24T17:27:57;18.10;99.90
38995;DHT22;24769;18.712;99.000;2023-01-24T17:30:24;18.30;99.90
38995;DHT22;24769;18.712;99.000;2023-01-24T17:32:51;18.30;99.90
38995;DHT22;24769;18.712;99.000;2023-01-24T17:35:17;18.00;99.90
38995;DHT22;24769;18.712;99.000;2023-01-24T17:37:44;17.80;99.90
38995;DHT22;24769;18.712;99.000;2023-01-24T17:40:11;17.70;99.90
38995;DHT22;24769;18.712;99.000;2023-01-24T17:42:37;17.80;99.90
38995;DHT22;24769;18.712;99.000;2023-01-24T17:45:04;18.00;99.90
38995;DHT22;24769;18.712;99.000;2023-01-24T17:47:31;17.90;99.90
38995;DHT22;24769;18.712;99.000;2023-01-24T17:49:57;18.00;99.90
38995;DHT22;24769;18.712;99.000;2023-01-24T17:52:24;17.90;99.90
38995;DHT22;24769;18.712;99.000;2023-01-24T17:54:51;17.80;99.90
38995;DHT22;24769;18.712;99.000;2023-01-24T17:57:17;17.60;99.90
38995;DHT22;24769;18.712;99.000;2023-01-24T17:59:44;17.40;99.90
38995;DHT22;24769;18.712;99.000;2023-01-24T18:02:10;17.60;99.90
38995;DHT22;24769;18.712;99.000;2023-01-24T18:04:37;17.60;99.90
38995;DHT22;24769;18.712;99.000;2023-01-24T18:07:03;17.60;99.90
38995;DHT22;24769;18.712;99.000;2023-01-24T18:09:30;17.80;99.90
38995;DHT22;24769;18.712;99.000;2023-01-24T18:11:57;17.80;99.90
38995;DHT22;24769;18.712;99.000;2023-01-24T18:14:23;17.70;99.90
38995;DHT22;24769;18.712;99.000;2023-01-24T18:16:50;17.60;99.90
38995;DHT22;24769;18.712;99.000;2023-01-24T18:19:17;17.50;99.90
38995;DHT22;24769;18.712;99.000;2023-01-24T18:21:44;17.60;99.90
38995;DHT22;24769;18.712;99.000;2023-01-24T18:24:10;17.40;99.90
38995;DHT22;24769;18.712;99.000;2023-01-24T18:26:37;17.30;99.90
38995;DHT22;24769;18.712;99.000;2023-01-24T18:29:04;17.30;99.90
38995;DHT22;24769;18.712;99.000;2023-01-24T18:31:30;17.50;99.90
38995;DHT22;24769;18.712;99.000;2023-01-24T18:33:57;17.60;99.90
38995;DHT22;24769;18.712;99.000;2023-01-24T18:36:24;17.50;99.90
38995;DHT22;24769;18.712;99.000;2023-01-24T18:38:51;17.40;99.90
38995;DHT22;24769;18.712;99.000;2023-01-24T18:41:18;17.40;99.90
38995;DHT22;24769;18.712;99.000;2023-01-24T18:43:45;17.40;99.90
38995;DHT22;24769;18.712;99.000;2023-01-24T18:46:13;17.40;99.90
38995;DHT22;24769;18.712;99.000;2023-01-24T18:48:41;17.40;99.90
38995;DHT22;24769;18.712;99.000;2023-01-24T18:51:16;17.40;99.90
38995;DHT22;24769;18.712;99.000;2023-01-24T18:53:44;17.50;99.90
38995;DHT22;24769;18.712;99.000;2023-01-24T18:56:11;17.30;99.90
38995;DHT22;24769;18.712;99.000;2023-01-24T18:58:38;17.40;99.90
38995;DHT22;24769;18.712;99.000;2023-01-24T19:03:40;17.80;99.90
38995;DHT22;24769;18.712;99.000;2023-01-24T19:06:07;17.70;99.90
38995;DHT22;24769;18.712;99.000;2023-01-24T19:08:35;17.50;99.90
38995;DHT22;24769;18.712;99.000;2023-01-24T19:11:13;17.50;99.90
38995;DHT22;24769;18.712;99.000;2023-01-24T19:13:40;17.60;99.90
38995;DHT22;24769;18.712;99.000;2023-01-24T19:16:07;17.60;99.90
38995;DHT22;24769;18.712;99.000;2023-01-24T19:18:34;17.40;99.90
38995;DHT22;24769;18.712;99.000;2023-01-24T19:21:08;17.30;99.90
38995;DHT22;24769;18.712;99.000;2023-01-24T19:23:37;17.20;99.90
38995;DHT22;24769;18.712;99.000;2023-01-24T19:26:05;17.10;99.90
38995;DHT22;24769;18.712;99.000;2023-01-24T19:28:32;17.10;99.90
38995;DHT22;24769;18.712;99.000;2023-01-24T19:30:59;17.10;99.90
38995;DHT22;24769;18.712;99.000;2023-01-24T19:33:26;17.10;99.90
38995;DHT22;24769;18.712;99.000;2023-01-24T19:35:53;17.00;99.90
38995;DHT22;24769;18.712;99.000;2023-01-24T19:38:19;17.00;99.90
38995;DHT22;24769;18.712;99.000;2023-01-24T19:40:46;17.10;99.90
38995;DHT22;24769;18.712;99.000;2023-01-24T19:43:13;17.10;99.90
38995;DHT22;24769;18.712;99.000;2023-01-24T19:45:41;17.10;99.90
38995;DHT22;24769;18.712;99.000;2023-01-24T19:48:09;16.90;99.90
38995;DHT22;24769;18.712;99.000;2023-01-24T19:50:37;16.80;99.90
38995;DHT22;24769;18.712;99.000;2023-01-24T19:53:07;16.90;99.90
38995;DHT22;24769;18.712;99.000;2023-01-24T19:55:35;17.00;99.90
38995;DHT22;24769;18.712;99.000;2023-01-24T19:58:05;16.90;99.90
38995;DHT22;24769;18.712;99.000;2023-01-24T20:00:33;16.70;99.90
38995;DHT22;24769;18.712;99.000;2023-01-24T20:03:00;16.70;99.90
38995;DHT22;24769;18.712;99.000;2023-01-24T20:05:27;16.60;99.90
38995;DHT22;24769;18.712;99.000;2023-01-24T20:07:55;16.70;99.90
38995;DHT22;24769;18.712;99.000;2023-01-24T20:10:24;16.70;99.90
38995;DHT22;24769;18.712;99.000;2023-01-24T20:12:54;16.60;99.90
38995;DHT22;24769;18.712;99.000;2023-01-24T20:15:21;16.50;99.90
38995;DHT22;24769;18.712;99.000;2023-01-24T20:17:50;16.60;99.90
38995;DHT22;24769;18.712;99.000;2023-01-24T20:20:17;16.50;99.90
38995;DHT22;24769;18.712;99.000;2023-01-24T20:22:45;16.30;99.90
38995;DHT22;24769;18.712;99.000;2023-01-24T20:25:12;16.30;99.90
38995;DHT22;24769;18.712;99.000;2023-01-24T20:27:39;16.30;99.90
38995;DHT22;24769;18.712;99.000;2023-01-24T20:30:06;16.40;99.90
38995;DHT22;24769;18.712;99.000;2023-01-24T20:32:32;16.40;99.90
38995;DHT22;24769;18.712;99.000;2023-01-24T20:34:59;16.40;99.90
38995;DHT22;24769;18.712;99.000;2023-01-24T20:37:27;16.30;99.90
38995;DHT22;24769;18.712;99.000;2023-01-24T20:39:53;16.30;99.90
38995;DHT22;24769;18.712;99.000;2023-01-24T20:42:20;16.20;99.90
38995;DHT22;24769;18.712;99.000;2023-01-24T20:44:47;16.30;99.90
38995;DHT22;24769;18.712;99.000;2023-01-24T20:47:14;16.30;99.90
38995;DHT22;24769;18.712;99.000;2023-01-24T20:49:40;16.20;99.90
38995;DHT22;24769;18.712;99.000;2023-01-24T20:52:07;16.20;99.90
38995;DHT22;24769;18.712;99.000;2023-01-24T20:54:33;16.10;99.90
38995;DHT22;24769;18.712;99.000;2023-01-24T20:57:00;16.10;99.90
38995;DHT22;24769;18.712;99.000;2023-01-24T20:59:27;16.10;99.90
38995;DHT22;24769;18.712;99.000;2023-01-24T21:01:54;16.10;99.90
38995;DHT22;24769;18.712;99.000;2023-01-24T21:04:21;16.00;99.90
38995;DHT22;24769;18.712;99.000;2023-01-24T21:06:47;15.90;99.90
38995;DHT22;24769;18.712;99.000;2023-01-24T21:09:14;15.90;99.90
38995;DHT22;24769;18.712;99.000;2023-01-24T21:11:41;15.90;99.90
38995;DHT22;24769;18.712;99.000;2023-01-24T21:14:11;16.00;99.90
38995;DHT22;24769;18.712;99.000;2023-01-24T21:16:38;16.00;99.90
38995;DHT22;24769;18.712;99.000;2023-01-24T21:19:09;16.00;99.90
38995;DHT22;24769;18.712;99.000;2023-01-24T21:21:39;15.80;99.90
38995;DHT22;24769;18.712;99.000;2023-01-24T21:24:09;15.90;99.90
38995;DHT22;24769;18.712;99.000;2023-01-24T21:26:37;15.90;99.90
38995;DHT22;24769;18.712;99.000;2023-01-24T21:29:03;15.70;99.90
38995;DHT22;24769;18.712;99.000;2023-01-24T21:31:35;15.80;99.90
38995;DHT22;24769;18.712;99.000;2023-01-24T21:34:05;15.80;99.90
38995;DHT22;24769;18.712;99.000;2023-01-24T21:36:32;15.80;99.90
38995;DHT22;24769;18.712;99.000;2023-01-24T21:39:02;15.70;99.90
38995;DHT22;24769;18.712;99.000;2023-01-24T21:41:29;15.70;99.90
38995;DHT22;24769;18.712;99.000;2023-01-24T21:44:14;15.70;99.90
38995;DHT22;24769;18.712;99.000;2023-01-24T21:46:43;15.60;99.90
38995;DHT22;24769;18.712;99.000;2023-01-24T21:49:10;15.60;99.90
38995;DHT22;24769;18.712;99.000;2023-01-24T21:51:57;15.60;99.90
38995;DHT22;24769;18.712;99.000;2023-01-24T21:54:29;15.70;99.90
38995;DHT22;24769;18.712;99.000;2023-01-24T21:57:02;15.70;99.90
38995;DHT22;24769;18.712;99.000;2023-01-24T21:59:47;15.70;99.90
38995;DHT22;24769;18.712;99.000;2023-01-24T22:02:15;15.60;99.90
38995;DHT22;24769;18.712;99.000;2023-01-24T22:04:42;15.60;99.90
38995;DHT22;24769;18.712;99.000;2023-01-24T22:07:10;15.70;99.90
38995;DHT22;24769;18.712;99.000;2023-01-24T22:09:37;15.60;99.90
38995;DHT22;24769;18.712;99.000;2023-01-24T22:12:04;15.50;99.90
38995;DHT22;24769;18.712;99.000;2023-01-24T22:14:32;15.60;99.90
38995;DHT22;24769;18.712;99.000;2023-01-24T22:17:00;15.60;99.90
38995;DHT22;24769;18.712;99.000;2023-01-24T22:27:18;15.40;99.90
38995;DHT22;24769;18.712;99.000;2023-01-24T22:29:46;15.30;99.90
38995;DHT22;24769;18.712;99.000;2023-01-24T22:32:15;15.30;99.90
38995;DHT22;24769;18.712;99.000;2023-01-24T22:34:42;15.30;99.90
38995;DHT22;24769;18.712;99.000;2023-01-24T22:37:51;15.30;99.90
38995;DHT22;24769;18.712;99.000;2023-01-24T22:39:58;15.40;99.90
38995;DHT22;24769;18.712;99.000;2023-01-24T22:42:25;15.30;99.90
38995;DHT22;24769;18.712;99.000;2023-01-24T22:44:52;15.20;99.90
38995;DHT22;24769;18.712;99.000;2023-01-24T22:47:19;15.20;99.90
38995;DHT22;24769;18.712;99.000;2023-01-24T22:49:46;15.20;99.90
38995;DHT22;24769;18.712;99.000;2023-01-24T22:52:13;15.10;99.90
38995;DHT22;24769;18.712;99.000;2023-01-24T22:54:40;15.20;99.90
38995;DHT22;24769;18.712;99.000;2023-01-24T22:57:08;15.20;99.90
38995;DHT22;24769;18.712;99.000;2023-01-24T22:59:35;15.10;99.90
38995;DHT22;24769;18.712;99.000;2023-01-24T23:02:02;15.10;99.90
38995;DHT22;24769;18.712;99.000;2023-01-24T23:04:29;15.20;99.90
38995;DHT22;24769;18.712;99.000;2023-01-24T23:06:56;15.10;99.90
38995;DHT22;24769;18.712;99.000;2023-01-24T23:09:22;15.40;99.90
38995;DHT22;24769;18.712;99.000;2023-01-24T23:11:49;15.40;99.90
38995;DHT22;24769;18.712;99.000;2023-01-24T23:14:16;15.20;99.90
38995;DHT22;24769;18.712;99.000;2023-01-24T23:17:06;15.30;99.90
38995;DHT22;24769;18.712;99.000;2023-01-24T23:19:38;15.30;99.90
38995;DHT22;24769;18.712;99.000;2023-01-24T23:22:28;15.30;99.90
38995;DHT22;24769;18.712;99.000;2023-01-24T23:24:55;15.30;99.90
38995;DHT22;24769;18.712;99.000;2023-01-24T23:27:25;15.30;99.90
38995;DHT22;24769;18.712;99.000;2023-01-24T23:30:03;15.20;99.90
38995;DHT22;24769;18.712;99.000;2023-01-24T23:35:12;15.20;99.90
38995;DHT22;24769;18.712;99.000;2023-01-24T23:37:40;15.10;99.90
38995;DHT22;24769;18.712;99.000;2023-01-24T23:40:10;15.10;99.90
38995;DHT22;24769;18.712;99.000;2023-01-24T23:42:37;15.00;99.90
38995;DHT22;24769;18.712;99.000;2023-01-24T23:45:04;14.90;99.90
38995;DHT22;24769;18.712;99.000;2023-01-24T23:47:31;14.90;99.90
38995;DHT22;24769;18.712;99.000;2023-01-24T23:49:57;15.10;99.90
38995;DHT22;24769;18.712;99.000;2023-01-24T23:52:24;15.10;99.90
38995;DHT22;24769;18.712;99.000;2023-01-24T23:54:50;15.10;99.90
38995;DHT22;24769;18.712;99.000;2023-01-24T23:57:17;15.00;99.90
38995;DHT22;24769;18.712;99.000;2023-01-24T23:59:43;15.00;99.90
